Time;durP1;ratioP1;P1;durP2;ratioP2;P2;SDS_P1;SDS_P2;PMS_P1;PMS_P2;Temp;Humidity;BMP_temperature;BMP_pressure;BME280_temperature;BME280_humidity;BME280_pressure;Samples;Min_cycle;Max_cycle;Signal;HPM_P1;HPM_P2
2021/10/30 00:00:51;;;;;;;42.58;21.90;;;;;;;3.32;84.64;102292.16;1762939;81;21386;-54
2021/10/30 00:03:57;;;;;;;37.70;21.52;;;;;;;3.31;84.58;102282.31;1762472;81;21331;-56
2021/10/30 00:07:03;;;;;;;31.37;18.42;;;;;;;3.26;84.37;102287.09;1762245;81;21181;-54
2021/10/30 00:10:10;;;;;;;36.93;19.73;;;;;;;3.22;84.21;102285.48;1762198;81;21195;-54
2021/10/30 00:13:16;;;;;;;35.85;19.27;;;;;;;3.18;84.10;102275.80;1742641;81;21232;-56
2021/10/30 00:16:21;;;;;;;31.57;17.90;;;;;;;3.14;84.02;102285.02;1762166;81;21326;-54
2021/10/30 00:19:28;;;;;;;41.48;18.75;;;;;;;3.08;83.97;102283.55;1762167;81;21172;-54
2021/10/30 00:22:33;;;;;;;40.15;17.73;;;;;;;3.09;84.17;102281.72;1763433;78;21184;-54
2021/10/30 00:25:40;;;;;;;31.52;17.10;;;;;;;3.08;84.18;102279.09;1762142;81;21846;-54
2021/10/30 00:28:45;;;;;;;30.40;16.65;;;;;;;3.02;84.11;102269.46;1762830;80;21208;-55
2021/10/30 00:31:51;;;;;;;30.12;18.00;;;;;;;2.98;84.23;102270.09;1762226;81;21306;-54
2021/10/30 00:34:57;;;;;;;33.88;17.75;;;;;;;2.96;84.40;102275.20;1751096;82;21232;-53
2021/10/30 00:38:04;;;;;;;26.70;15.83;;;;;;;2.96;84.56;102264.38;1751221;82;21213;-53
2021/10/30 00:41:15;;;;;;;28.80;17.42;;;;;;;2.93;84.47;102265.41;1751315;82;21333;-53
2021/10/30 00:44:22;;;;;;;26.85;15.53;;;;;;;2.90;84.42;102278.23;1751224;82;21780;-55
2021/10/30 00:47:28;;;;;;;25.92;14.43;;;;;;;2.88;84.43;102272.03;1751238;82;21386;-54
2021/10/30 00:50:35;;;;;;;19.02;12.82;;;;;;;2.82;84.19;102275.06;1751278;82;21430;-54
2021/10/30 00:53:41;;;;;;;20.43;14.83;;;;;;;2.77;84.26;102278.48;1751171;82;21188;-54
2021/10/30 00:56:49;;;;;;;23.02;13.38;;;;;;;2.77;84.53;102273.07;1751178;82;21363;-54
2021/10/30 00:59:57;;;;;;;23.02;12.90;;;;;;;2.77;84.52;102271.25;1751284;82;21220;-54
2021/10/30 01:03:02;;;;;;;23.42;13.78;;;;;;;2.73;84.41;102270.11;1751208;82;21322;-52
2021/10/30 01:06:08;;;;;;;25.10;15.18;;;;;;;2.66;84.57;102276.81;1761882;81;21358;-53
2021/10/30 01:09:16;;;;;;;34.25;17.52;;;;;;;2.70;85.03;102279.27;1762262;81;21403;-54
2021/10/30 01:12:23;;;;;;;50.75;23.32;;;;;;;2.75;84.97;102280.38;1762157;81;21268;-53
2021/10/30 01:15:30;;;;;;;56.53;26.60;;;;;;;2.72;84.74;102276.48;1762134;81;21219;-53
2021/10/30 01:18:39;;;;;;;61.25;30.02;;;;;;;2.68;84.58;102283.87;1762293;81;21315;-54
2021/10/30 01:21:47;;;;;;;67.03;30.82;;;;;;;2.65;84.33;102281.80;1762257;81;22025;-54
2021/10/30 01:24:54;;;;;;;64.87;30.25;;;;;;;2.59;84.05;102286.17;1762264;80;21207;-54
2021/10/30 01:28:04;;;;;;;69.30;29.32;;;;;;;2.55;83.96;102290.01;1762205;81;21509;-53
2021/10/30 01:31:11;;;;;;;63.50;28.87;;;;;;;2.54;83.84;102296.34;1762158;81;21262;-54
2021/10/30 01:34:21;;;;;;;66.35;27.67;;;;;;;2.52;83.79;102283.41;1762230;81;21201;-54
2021/10/30 01:37:26;;;;;;;78.20;29.27;;;;;;;2.51;83.75;102278.94;1762385;81;21181;-54
2021/10/30 01:40:33;;;;;;;64.07;29.15;;;;;;;2.50;83.73;102282.14;1762421;80;21378;-54
2021/10/30 01:43:40;;;;;;;69.15;27.55;;;;;;;2.48;83.67;102284.03;1753941;81;21205;-54
2021/10/30 01:46:48;;;;;;;69.72;25.70;;;;;;;2.48;83.77;102277.74;1738791;82;21371;-54
2021/10/30 01:49:57;;;;;;;59.85;24.15;;;;;;;2.51;84.16;102280.29;1739137;82;21701;-53
2021/10/30 01:53:06;;;;;;;57.73;24.65;;;;;;;2.50;84.16;102282.61;1739601;82;21667;-54
2021/10/30 01:56:13;;;;;;;46.48;21.65;;;;;;;2.47;84.27;102285.00;1739447;82;21388;-55
2021/10/30 01:59:20;;;;;;;47.98;23.02;;;;;;;2.41;84.01;102277.17;1739277;82;21328;-55
2021/10/30 02:02:26;;;;;;;39.90;21.73;;;;;;;2.37;84.09;102282.82;1739517;82;21355;-55
2021/10/30 02:05:33;;;;;;;41.92;22.60;;;;;;;2.33;84.16;102279.39;1738940;82;21848;-53
2021/10/30 02:08:39;;;;;;;44.35;20.85;;;;;;;2.32;84.43;102279.00;1739036;82;21318;-54
2021/10/30 02:11:46;;;;;;;35.68;18.10;;;;;;;2.33;84.60;102281.24;1739192;82;21552;-54
2021/10/30 02:14:52;;;;;;;32.95;17.20;;;;;;;2.34;84.72;102281.16;1739001;82;21276;-54
2021/10/30 02:17:59;;;;;;;31.77;18.48;;;;;;;2.31;84.64;102278.62;1739299;82;21418;-53
2021/10/30 02:21:07;;;;;;;31.27;16.40;;;;;;;2.29;84.72;102276.92;1739424;82;21855;-56
2021/10/30 02:24:13;;;;;;;33.53;17.57;;;;;;;2.20;84.33;102277.40;1739476;82;21323;-54
2021/10/30 02:27:18;;;;;;;29.07;17.27;;;;;;;2.03;84.04;102281.42;1731019;83;21331;-54
2021/10/30 02:30:24;;;;;;;28.17;16.95;;;;;;;1.94;84.17;102280.49;1730965;83;21244;-55
2021/10/30 02:33:31;;;;;;;38.42;19.12;;;;;;;1.89;84.29;102282.57;1730969;83;21300;-54
2021/10/30 02:36:36;;;;;;;36.65;19.87;;;;;;;1.85;84.50;102292.64;1730958;83;21404;-54
2021/10/30 02:39:43;;;;;;;42.65;21.97;;;;;;;1.90;84.98;102293.76;1731043;83;21867;-53
2021/10/30 02:42:48;;;;;;;43.38;21.23;;;;;;;1.92;84.98;102287.32;1731035;83;21461;-54
2021/10/30 02:45:55;;;;;;;50.50;23.10;;;;;;;1.92;84.97;102299.97;1731003;83;21430;-55
2021/10/30 02:49:02;;;;;;;40.33;21.05;;;;;;;1.92;84.90;102295.92;1731041;83;21426;-54
2021/10/30 02:52:11;;;;;;;42.27;22.00;;;;;;;1.90;84.69;102301.39;1731124;83;21308;-55
2021/10/30 02:55:17;;;;;;;44.80;22.42;;;;;;;1.86;84.69;102304.28;1731081;83;21386;-54
2021/10/30 02:58:23;;;;;;;55.43;24.60;;;;;;;1.89;85.02;102305.52;1731091;83;21856;-54
2021/10/30 03:01:31;;;;;;;51.15;25.45;;;;;;;1.95;85.16;102309.27;1730974;83;21197;-56
2021/10/30 03:04:37;;;;;;;53.65;27.00;;;;;;;2.02;85.38;102305.30;1731076;83;21402;-54
2021/10/30 03:07:43;;;;;;;56.33;28.57;;;;;;;2.02;85.27;102306.66;1731049;83;21848;-54
2021/10/30 03:10:49;;;;;;;44.95;23.98;;;;;;;2.04;85.28;102303.41;1730908;83;21205;-53
2021/10/30 03:13:55;;;;;;;39.15;20.70;;;;;;;2.06;85.28;102307.77;1730899;83;21347;-53
2021/10/30 03:17:03;;;;;;;35.78;18.73;;;;;;;2.09;85.14;102313.52;1731067;83;21608;-53
2021/10/30 03:20:09;;;;;;;31.05;18.27;;;;;;;2.03;84.87;102318.73;1730971;83;21236;-54
2021/10/30 03:23:15;;;;;;;42.45;20.10;;;;;;;1.96;84.64;102318.64;1730975;83;21253;-53
2021/10/30 03:26:22;;;;;;;36.03;19.62;;;;;;;1.92;84.78;102320.22;1733725;79;21328;-54
2021/10/30 03:29:29;;;;;;;42.80;20.12;;;;;;;1.92;84.78;102318.37;1741275;82;21193;-54
2021/10/30 03:32:35;;;;;;;47.58;19.48;;;;;;;1.84;84.47;102334.06;1742202;82;21447;-54
2021/10/30 03:35:43;;;;;;;49.58;20.10;;;;;;;1.75;84.47;102330.92;1741903;82;21264;-55
2021/10/30 03:38:50;;;;;;;64.60;20.35;;;;;;;1.70;84.73;102331.64;1741506;82;21409;-55
2021/10/30 03:41:57;;;;;;;48.63;20.32;;;;;;;1.77;85.13;102345.23;1741285;82;21296;-55
2021/10/30 03:45:02;;;;;;;41.35;20.60;;;;;;;1.80;85.14;102338.34;1741251;82;21221;-54
2021/10/30 03:48:13;;;;;;;54.93;19.55;;;;;;;1.81;85.03;102330.66;1741242;82;21336;-53
2021/10/30 03:51:17;;;;;;;47.73;20.77;;;;;;;1.75;84.98;102334.97;1741803;82;21269;-54
2021/10/30 03:54:24;;;;;;;45.20;19.87;;;;;;;1.75;85.34;102333.16;1741274;82;21885;-53
2021/10/30 03:57:30;;;;;;;40.80;20.08;;;;;;;1.79;85.42;102337.95;1741337;82;21332;-55
2021/10/30 04:00:36;;;;;;;52.95;19.42;;;;;;;1.78;85.38;102337.52;1741340;82;21347;-55
2021/10/30 04:03:44;;;;;;;46.15;19.60;;;;;;;1.85;85.72;102338.53;1741561;82;21339;-55
2021/10/30 04:06:49;;;;;;;49.48;21.07;;;;;;;1.90;85.82;102336.97;1741427;82;21205;-55
2021/10/30 04:09:55;;;;;;;51.95;21.62;;;;;;;1.89;85.56;102334.73;1741984;82;21663;-54
2021/10/30 04:13:01;;;;;;;46.05;22.48;;;;;;;1.85;85.55;102345.75;1741696;81;21221;-54
2021/10/30 04:16:07;;;;;;;64.65;25.05;;;;;;;1.87;85.78;102342.02;1741649;82;21485;-54
2021/10/30 04:19:13;;;;;;;43.95;21.55;;;;;;;1.90;85.92;102344.60;1741189;82;21419;-54
2021/10/30 04:22:20;;;;;;;53.28;24.27;;;;;;;1.85;85.61;102352.04;1741498;82;21320;-55
2021/10/30 04:25:27;;;;;;;41.00;23.02;;;;;;;1.76;85.39;102347.55;1741591;82;21414;-55
2021/10/30 04:28:33;;;;;;;56.18;22.05;;;;;;;1.74;85.68;102356.19;1764000;80;21212;-55
2021/10/30 04:31:39;;;;;;;46.98;23.42;;;;;;;1.80;85.92;102362.64;1761767;81;21286;-54
2021/10/30 04:34:47;;;;;;;53.63;26.33;;;;;;;1.82;85.79;102357.59;1761981;81;21232;-55
2021/10/30 04:37:51;;;;;;;44.88;24.52;;;;;;;1.84;85.71;102355.67;1762293;81;21314;-54
2021/10/30 04:40:56;;;;;;;53.02;27.50;;;;;;;1.79;85.48;102354.15;1761908;81;21268;-54
2021/10/30 04:44:02;;;;;;;68.28;29.90;;;;;;;1.79;85.61;102360.44;1761760;81;21200;-54
2021/10/30 04:47:07;;;;;;;64.90;30.10;;;;;;;1.80;85.56;102359.48;1761599;81;21231;-54
2021/10/30 04:50:13;;;;;;;57.48;30.62;;;;;;;1.84;85.56;102361.56;1761694;81;21751;-55
2021/10/30 04:53:19;;;;;;;64.40;29.18;;;;;;;1.81;85.17;102363.06;1761716;81;21200;-55
2021/10/30 04:56:23;;;;;;;68.80;31.93;;;;;;;1.70;84.78;102355.94;1761642;81;21235;-54
2021/10/30 04:59:29;;;;;;;68.80;31.17;;;;;;;1.62;84.64;102366.21;1761528;81;21724;-55
2021/10/30 05:02:34;;;;;;;68.35;33.67;;;;;;;1.63;84.90;102374.23;1761594;81;21200;-55
2021/10/30 05:05:47;;;;;;;72.08;32.00;;;;;;;1.66;84.93;102383.54;1762075;80;21243;-55
2021/10/30 05:08:53;;;;;;;59.08;31.82;;;;;;;1.69;84.89;102373.06;1763797;81;21181;-54
2021/10/30 05:11:58;;;;;;;70.45;31.42;;;;;;;1.71;84.86;102376.58;1772646;80;21320;-54
2021/10/30 05:15:05;;;;;;;77.55;36.05;;;;;;;1.71;84.90;102373.88;1741790;82;21358;-54
2021/10/30 05:18:10;;;;;;;84.72;36.53;;;;;;;1.75;85.01;102379.52;1741231;82;21359;-55
2021/10/30 05:21:15;;;;;;;78.80;36.40;;;;;;;1.75;85.01;102380.88;1741195;82;21355;-54
2021/10/30 05:24:21;;;;;;;72.45;34.73;;;;;;;1.77;85.16;102381.22;1741573;82;21402;-54
2021/10/30 05:27:27;;;;;;;74.32;35.13;;;;;;;1.87;85.24;102385.22;1741133;82;21236;-54
2021/10/30 05:30:32;;;;;;;78.42;36.42;;;;;;;1.89;84.84;102386.53;1757706;81;21695;-54
2021/10/30 05:33:39;;;;;;;87.35;36.80;;;;;;;1.87;84.69;102396.02;1763803;80;21193;-55
2021/10/30 05:36:47;;;;;;;101.67;41.33;;;;;;;1.90;84.59;102396.37;1770570;80;22071;-55
2021/10/30 05:39:57;;;;;;;75.92;35.98;;;;;;;2.00;84.84;102395.00;1770553;80;21185;-55
2021/10/30 05:43:03;;;;;;;67.90;33.30;;;;;;;2.08;84.69;102403.13;1770105;80;21173;-54
2021/10/30 05:46:07;;;;;;;66.70;32.25;;;;;;;2.16;84.64;102393.30;1770264;81;21284;-54
2021/10/30 05:49:15;;;;;;;65.00;31.70;;;;;;;2.26;84.65;102404.08;1768962;81;21185;-55
2021/10/30 05:52:20;;;;;;;64.35;32.67;;;;;;;2.37;84.52;102403.08;1745023;81;21761;-55
2021/10/30 05:55:24;;;;;;;65.45;32.15;;;;;;;2.44;84.28;102406.75;1755459;81;21201;-53
2021/10/30 05:58:30;;;;;;;82.15;34.92;;;;;;;2.49;84.03;102403.85;1761964;80;21193;-54
2021/10/30 06:01:36;;;;;;;85.67;37.78;;;;;;;2.51;83.71;102407.33;1739207;82;21212;-54
2021/10/30 06:04:42;;;;;;;90.38;38.35;;;;;;;2.46;83.50;102412.97;1763986;81;21722;-54
2021/10/30 06:07:47;;;;;;;93.45;38.15;;;;;;;2.45;83.43;102409.87;1769890;80;21274;-54
2021/10/30 06:10:53;;;;;;;78.30;33.00;;;;;;;2.50;83.51;102408.30;1770726;80;21222;-54
2021/10/30 06:13:59;;;;;;;71.80;32.40;;;;;;;2.62;83.90;102413.09;1770356;80;21690;-55
2021/10/30 06:17:04;;;;;;;65.67;30.43;;;;;;;2.73;83.75;102414.78;1769484;80;21691;-54
2021/10/30 06:20:11;;;;;;;66.80;32.50;;;;;;;2.79;83.68;102411.80;1769402;80;21229;-54
2021/10/30 06:23:16;;;;;;;66.22;31.73;;;;;;;2.76;83.11;102411.91;1769639;80;21217;-54
2021/10/30 06:26:21;;;;;;;65.90;33.42;;;;;;;2.73;83.09;102418.38;1769704;80;21212;-54
2021/10/30 06:29:30;;;;;;;60.52;29.35;;;;;;;2.79;83.18;102419.91;1770354;80;21184;-54
2021/10/30 06:32:38;;;;;;;67.40;28.77;;;;;;;2.86;83.19;102422.69;1770824;80;21213;-54
2021/10/30 06:35:43;;;;;;;59.30;29.37;;;;;;;2.93;83.20;102422.79;1771629;80;21351;-54
2021/10/30 06:38:50;;;;;;;65.55;31.87;;;;;;;2.98;83.21;102418.88;1771309;80;21177;-54
2021/10/30 06:41:56;;;;;;;71.75;36.83;;;;;;;3.01;83.06;102421.42;1771409;80;21724;-56
2021/10/30 06:45:02;;;;;;;76.22;42.40;;;;;;;3.01;83.15;102408.41;1771360;80;21200;-54
2021/10/30 06:48:08;;;;;;;74.85;40.98;;;;;;;3.08;83.38;102413.02;1770926;80;21821;-54
2021/10/30 06:51:15;;;;;;;101.38;50.25;;;;;;;3.13;83.36;102407.75;1770406;80;21229;-55
2021/10/30 06:54:21;;;;;;;85.67;43.75;;;;;;;3.17;83.20;102405.31;1770274;80;21248;-54
2021/10/30 06:57:27;;;;;;;122.60;55.90;;;;;;;3.20;83.19;102403.80;1770800;80;21679;-54
2021/10/30 07:00:33;;;;;;;85.80;41.42;;;;;;;3.37;83.77;102406.48;1768484;81;21796;-54
2021/10/30 07:03:39;;;;;;;88.35;40.58;;;;;;;3.51;83.61;102412.04;1770647;80;21569;-55
2021/10/30 07:06:44;;;;;;;84.55;44.77;;;;;;;3.61;83.59;102409.25;1770966;80;21788;-54
2021/10/30 07:09:50;;;;;;;85.35;45.12;;;;;;;3.70;83.41;102410.09;1767486;80;22086;-54
2021/10/30 07:12:55;;;;;;;80.53;40.38;;;;;;;3.77;83.53;102406.11;1769832;80;21170;-55
2021/10/30 07:16:01;;;;;;;85.15;45.23;;;;;;;3.89;83.54;102406.79;1769923;80;21582;-54
2021/10/30 07:19:07;;;;;;;82.25;42.83;;;;;;;3.92;83.38;102399.84;1768788;79;21181;-57
2021/10/30 07:22:14;;;;;;;87.85;40.92;;;;;;;3.98;83.61;102401.36;1769336;80;21232;-55
2021/10/30 07:25:22;;;;;;;81.28;41.33;;;;;;;4.06;83.73;102401.81;1770365;80;21216;-55
2021/10/30 07:28:28;;;;;;;73.10;38.70;;;;;;;4.15;84.11;102396.75;1762903;80;21562;-54
2021/10/30 07:31:34;;;;;;;67.67;38.02;;;;;;;4.30;84.45;102398.58;1740214;80;21244;-54
2021/10/30 07:34:40;;;;;;;68.52;38.95;;;;;;;4.38;84.39;102399.49;1740191;82;21239;-55
2021/10/30 07:37:48;;;;;;;67.40;38.20;;;;;;;4.44;84.35;102393.24;1740381;82;21398;-54
2021/10/30 07:40:53;;;;;;;62.15;35.92;;;;;;;4.53;84.48;102391.34;1739715;82;21228;-54
2021/10/30 07:43:59;;;;;;;67.60;35.10;;;;;;;4.66;84.73;102398.80;1739468;82;21240;-54
2021/10/30 07:47:04;;;;;;;55.75;34.15;;;;;;;4.79;85.00;102395.77;1739645;82;21205;-54
2021/10/30 07:50:12;;;;;;;77.05;39.33;;;;;;;4.95;85.34;102400.69;1739620;82;21240;-54
2021/10/30 07:53:17;;;;;;;76.67;40.28;;;;;;;5.09;85.48;102393.95;1739520;82;21209;-54
2021/10/30 07:56:23;;;;;;;78.47;40.17;;;;;;;5.23;85.60;102399.42;1740388;82;21299;-53
2021/10/30 07:59:30;;;;;;;76.60;40.67;;;;;;;5.38;85.73;102400.72;1740806;82;21815;-54
2021/10/30 08:02:38;;;;;;;72.10;38.40;;;;;;;5.52;85.81;102401.21;1740997;82;21173;-54
2021/10/30 08:05:46;;;;;;;74.75;36.73;;;;;;;5.66;86.00;102395.83;1741873;81;21294;-54
2021/10/30 08:08:52;;;;;;;74.85;38.78;;;;;;;5.77;86.17;102394.67;1740838;82;21293;-53
2021/10/30 08:11:58;;;;;;;68.40;35.10;;;;;;;5.95;86.44;102394.88;1751510;79;21402;-53
2021/10/30 08:15:04;;;;;;;74.20;37.60;;;;;;;6.12;86.70;102391.11;1739652;82;21185;-53
2021/10/30 08:18:10;;;;;;;62.85;34.20;;;;;;;6.30;86.92;102383.98;1766156;81;21181;-55
2021/10/30 08:21:16;;;;;;;57.75;35.15;;;;;;;6.50;87.07;102382.69;1766535;80;21213;-55
2021/10/30 08:24:23;;;;;;;46.25;31.50;;;;;;;6.71;87.21;102378.52;1739300;82;21208;-53
2021/10/30 08:27:28;;;;;;;52.50;31.00;;;;;;;6.90;87.33;102379.91;1738685;82;21561;-53
2021/10/30 08:30:34;;;;;;;45.28;28.38;;;;;;;7.10;87.48;102372.61;1754582;81;21725;-54
2021/10/30 08:33:40;;;;;;;47.80;29.05;;;;;;;7.33;87.70;102373.75;1756667;80;21235;-53
2021/10/30 08:36:46;;;;;;;43.90;29.52;;;;;;;7.54;87.71;102375.87;1768130;80;21217;-53
2021/10/30 08:39:53;;;;;;;46.45;29.15;;;;;;;7.74;87.67;102377.67;1760405;80;22036;-54
2021/10/30 08:42:58;;;;;;;45.40;27.37;;;;;;;7.92;87.48;102379.06;1741772;80;21240;-53
2021/10/30 08:46:06;;;;;;;40.17;26.33;;;;;;;8.09;87.21;102378.23;1740530;80;21267;-54
2021/10/30 08:49:11;;;;;;;40.75;27.00;;;;;;;8.26;86.90;102371.59;1765345;80;21180;-54
2021/10/30 08:52:16;;;;;;;40.45;27.07;;;;;;;8.43;86.65;102354.36;1770197;80;21300;-54
2021/10/30 08:55:21;;;;;;;35.10;25.23;;;;;;;8.62;86.27;102360.19;1765203;80;21251;-53
2021/10/30 08:58:27;;;;;;;31.12;22.30;;;;;;;8.79;85.87;102362.99;1769802;81;21319;-54
2021/10/30 09:01:33;;;;;;;36.15;22.58;;;;;;;8.93;85.41;102358.71;1771186;80;21347;-53
2021/10/30 09:04:40;;;;;;;35.33;22.25;;;;;;;9.05;84.84;102352.33;1767451;80;21309;-54
2021/10/30 09:07:45;;;;;;;34.35;21.50;;;;;;;9.18;84.37;102354.46;1755697;81;21693;-53
2021/10/30 09:10:55;;;;;;;33.60;21.62;;;;;;;9.30;83.89;102357.62;1765284;80;21216;-54
2021/10/30 09:14:04;;;;;;;32.67;21.42;;;;;;;9.45;83.64;102355.56;1763081;81;21150;-53
2021/10/30 09:17:23;;;;;;;31.23;21.10;;;;;;;9.59;83.04;102356.70;1766064;80;21175;-53
2021/10/30 09:20:29;;;;;;;38.38;23.52;;;;;;;9.75;82.41;102359.97;1740997;82;21724;-53
2021/10/30 09:23:37;;;;;;;29.25;21.68;;;;;;;9.89;81.71;102354.26;1741827;81;21192;-54
2021/10/30 09:26:43;;;;;;;29.80;22.82;;;;;;;10.05;81.29;102347.41;1760316;81;21209;-53
2021/10/30 09:30:05;;;;;;;31.90;22.17;;;;;;;10.18;80.50;102345.45;1764912;81;21351;-54
2021/10/30 09:33:13;;;;;;;34.58;22.42;;;;;;;10.29;79.91;102347.33;1764006;79;21225;-54
2021/10/30 09:36:19;;;;;;;34.80;22.55;;;;;;;10.42;79.21;102333.85;1766058;81;21207;-53
2021/10/30 09:39:25;;;;;;;30.88;21.45;;;;;;;10.51;78.37;102334.45;1765910;81;21215;-54
2021/10/30 09:42:32;;;;;;;37.00;23.30;;;;;;;10.62;77.74;102332.69;1726962;81;21730;-55
2021/10/30 09:45:56;;;;;;;31.02;21.45;;;;;;;10.75;77.08;102326.03;1723115;82;21289;-53
2021/10/30 09:49:29;;;;;;;32.75;22.02;;;;;;;10.87;76.24;102325.50;1705374;83;21199;-54
2021/10/30 09:52:38;;;;;;;30.75;21.82;;;;;;;11.05;75.71;102320.68;1690422;83;21755;-53
2021/10/30 09:55:44;;;;;;;28.92;20.27;;;;;;;11.20;75.03;102315.75;1706663;84;21211;-54
2021/10/30 09:58:53;;;;;;;43.20;21.15;;;;;;;11.38;74.49;102316.91;1733496;82;21243;-54
2021/10/30 10:02:00;;;;;;;30.62;20.48;;;;;;;11.54;73.86;102320.05;1723314;81;21728;-53
2021/10/30 10:05:05;;;;;;;27.02;19.40;;;;;;;11.70;73.18;102314.98;1706837;84;21231;-54
2021/10/30 10:08:10;;;;;;;28.35;19.40;;;;;;;11.85;72.50;102315.85;1727411;81;21188;-54
2021/10/30 10:11:19;;;;;;;27.00;18.40;;;;;;;12.05;71.70;102325.91;1759805;81;21216;-54
2021/10/30 10:14:26;;;;;;;29.27;20.45;;;;;;;12.21;70.98;102314.92;1760295;81;21820;-55
2021/10/30 10:17:31;;;;;;;33.85;19.55;;;;;;;12.38;70.05;102321.11;1760161;81;21213;-54
2021/10/30 10:20:36;;;;;;;31.52;21.70;;;;;;;12.51;69.32;102307.47;1716724;81;21700;-54
2021/10/30 10:23:43;;;;;;;31.73;20.77;;;;;;;12.63;68.52;102308.22;1732057;82;21743;-54
2021/10/30 10:26:58;;;;;;;29.98;21.42;;;;;;;12.73;67.80;102303.62;1735351;81;21220;-53
2021/10/30 10:30:03;;;;;;;28.23;21.73;;;;;;;12.83;66.93;102303.98;1734781;82;21734;-53
2021/10/30 10:33:24;;;;;;;36.60;24.52;;;;;;;12.97;66.57;102292.55;1735075;82;21175;-53
2021/10/30 10:36:31;;;;;;;35.65;22.80;;;;;;;13.11;66.12;102296.27;1759071;79;21208;-53
2021/10/30 10:39:40;;;;;;;33.98;23.07;;;;;;;13.23;64.98;102290.98;1769994;80;21232;-52
2021/10/30 10:42:47;;;;;;;32.20;23.38;;;;;;;13.31;63.90;102292.50;1771798;80;21690;-53
2021/10/30 10:45:55;;;;;;;35.92;24.10;;;;;;;13.41;63.39;102288.36;1769900;81;21252;-54
2021/10/30 10:49:00;;;;;;;34.43;24.77;;;;;;;13.47;62.63;102291.39;1769741;81;21228;-54
2021/10/30 10:52:25;;;;;;;33.70;23.10;;;;;;;13.56;62.03;102290.14;1769482;80;21184;-56
2021/10/30 10:55:29;;;;;;;33.90;23.12;;;;;;;13.63;61.20;102291.27;1739794;82;21217;-48
2021/10/30 10:58:36;;;;;;;36.85;25.75;;;;;;;13.74;60.96;102284.20;1750063;80;21198;-50
2021/10/30 11:01:46;;;;;;;39.92;26.65;;;;;;;13.81;59.68;102289.48;1762701;80;21213;-54
2021/10/30 11:05:21;;;;;;;35.35;24.55;;;;;;;13.85;59.68;102285.39;1761202;81;21200;-54
2021/10/30 11:08:47;;;;;;;35.10;22.02;;;;;;;13.91;59.63;102277.40;1766475;79;21193;-54
2021/10/30 11:11:53;;;;;;;32.03;21.50;;;;;;;13.97;58.81;102278.16;1762477;81;21219;-54
2021/10/30 11:15:13;;;;;;;32.05;21.82;;;;;;;14.03;58.47;102276.20;1757845;81;21192;-53
2021/10/30 11:21:46;;;;;;;29.90;18.73;;;;;;;14.18;57.70;102262.77;1773740;79;21199;-53
2021/10/30 11:25:01;;;;;;;23.62;16.85;;;;;;;14.29;57.46;102254.32;1755192;79;21173;-54
2021/10/30 11:28:07;;;;;;;25.97;17.50;;;;;;;14.41;56.88;102255.86;1769655;79;21212;-45
2021/10/30 11:31:22;;;;;;;21.73;17.00;;;;;;;14.48;56.41;102258.33;1764961;79;21204;-45
2021/10/30 11:34:28;;;;;;;25.60;17.37;;;;;;;14.56;56.32;102247.39;1755288;80;21236;-54
2021/10/30 11:37:34;;;;;;;25.05;18.02;;;;;;;14.70;56.00;102253.24;1768727;79;21189;-45
2021/10/30 11:41:01;;;;;;;38.00;21.97;;;;;;;14.83;55.46;102252.84;1751471;80;21188;-45
2021/10/30 11:44:10;;;;;;;36.00;25.08;;;;;;;14.94;55.22;102259.00;1755390;81;21751;-45
2021/10/30 11:47:17;;;;;;;29.37;20.88;;;;;;;15.03;54.36;102258.57;1755327;79;21172;-45
2021/10/30 11:50:26;;;;;;;29.67;23.25;;;;;;;15.07;54.53;102248.06;1760840;79;21753;-54
2021/10/30 11:53:41;;;;;;;31.00;20.27;;;;;;;15.17;53.96;102248.84;1761384;81;21177;-53
2021/10/30 11:56:51;;;;;;;25.15;18.35;;;;;;;15.23;53.78;102242.17;1769368;81;21279;-53
2021/10/30 12:00:11;;;;;;;32.42;23.18;;;;;;;15.29;53.08;102244.78;1769401;80;21773;-53
2021/10/30 12:03:15;;;;;;;29.82;21.37;;;;;;;15.37;53.14;102241.58;1769551;80;21154;-54
2021/10/30 12:06:20;;;;;;;28.02;20.20;;;;;;;15.42;52.87;102242.50;1768877;80;21224;-54
2021/10/30 12:09:47;;;;;;;31.77;18.70;;;;;;;15.48;52.77;102249.63;1739532;82;21223;-53
2021/10/30 12:12:53;;;;;;;30.80;22.58;;;;;;;15.60;52.56;102241.41;1765940;81;21181;-55
2021/10/30 12:15:58;;;;;;;35.20;24.75;;;;;;;15.68;52.17;102235.94;1740533;81;21800;-53
2021/10/30 12:19:10;;;;;;;26.55;18.25;;;;;;;15.69;51.94;102240.45;1740598;82;21261;-54
2021/10/30 12:22:32;;;;;;;37.65;24.67;;;;;;;15.68;51.47;102239.24;1739625;82;21332;-52
2021/10/30 12:25:38;;;;;;;33.00;23.95;;;;;;;15.65;51.18;102231.28;1739799;82;21198;-55
2021/10/30 12:28:46;;;;;;;29.55;19.48;;;;;;;15.60;51.09;102229.52;1739780;82;21245;-53
2021/10/30 12:32:09;;;;;;;27.90;18.10;;;;;;;15.58;51.41;102230.20;1739592;82;21798;-54
2021/10/30 12:35:31;;;;;;;29.27;17.77;;;;;;;15.53;51.22;102233.45;1719449;81;21218;-54
2021/10/30 12:38:38;;;;;;;22.35;16.65;;;;;;;15.58;51.07;102235.22;1744540;81;21804;-54
2021/10/30 12:41:44;;;;;;;28.20;18.80;;;;;;;15.65;50.57;102237.66;1770110;80;21785;-53
2021/10/30 12:44:53;;;;;;;22.42;16.60;;;;;;;15.66;50.60;102229.73;1769671;80;21211;-54
2021/10/30 12:48:19;;;;;;;26.93;16.55;;;;;;;15.66;50.53;102233.88;1766832;81;21177;-55
2021/10/30 12:51:29;;;;;;;23.02;16.37;;;;;;;15.64;50.55;102235.93;1766338;80;21197;-56
2021/10/30 12:54:34;;;;;;;29.90;17.15;;;;;;;15.67;50.09;102232.84;1769929;80;21267;-54
2021/10/30 12:57:42;;;;;;;22.70;16.93;;;;;;;15.69;49.98;102229.41;1755488;81;21213;-54
2021/10/30 13:00:52;;;;;;;30.32;16.95;;;;;;;15.71;49.77;102230.63;1766340;81;21267;-54
2021/10/30 13:04:16;;;;;;;27.67;18.35;;;;;;;15.67;49.70;102232.84;1766592;80;21476;-54
2021/10/30 13:07:22;;;;;;;26.00;18.32;;;;;;;15.59;49.85;102232.79;1739246;82;21679;-54
2021/10/30 13:10:29;;;;;;;24.60;18.37;;;;;;;15.52;49.87;102230.85;1715822;82;21231;-55
2021/10/30 13:13:36;;;;;;;26.48;16.25;;;;;;;15.46;50.22;102230.97;1731826;82;21335;-54
2021/10/30 13:16:41;;;;;;;29.27;16.82;;;;;;;15.44;50.35;102230.30;1739899;82;21224;-54
2021/10/30 13:19:54;;;;;;;25.30;16.85;;;;;;;15.39;50.44;102231.80;1739803;82;21216;-54
2021/10/30 13:23:02;;;;;;;26.97;17.45;;;;;;;15.32;50.40;102227.94;1740312;82;21391;-55
2021/10/30 13:26:08;;;;;;;26.45;18.67;;;;;;;15.26;50.44;102232.19;1739859;82;21458;-55
2021/10/30 13:29:14;;;;;;;33.38;22.17;;;;;;;15.19;50.36;102233.84;1768058;81;21177;-54
2021/10/30 13:32:22;;;;;;;39.30;25.52;;;;;;;15.10;50.39;102225.66;1770377;80;21730;-54
2021/10/30 13:35:27;;;;;;;39.18;25.37;;;;;;;15.02;50.58;102225.09;1770686;80;21299;-54
2021/10/30 13:38:33;;;;;;;39.78;27.13;;;;;;;14.92;50.93;102221.05;1763525;79;21363;-54
2021/10/30 13:41:39;;;;;;;31.37;21.60;;;;;;;14.81;50.97;102220.41;1771089;79;21260;-53
2021/10/30 13:44:47;;;;;;;32.53;18.60;;;;;;;14.71;51.09;102229.30;1771051;80;21761;-55
2021/10/30 13:47:55;;;;;;;28.92;17.42;;;;;;;14.55;51.31;102218.99;1771146;80;21181;-54
2021/10/30 13:51:02;;;;;;;26.17;18.20;;;;;;;14.42;51.61;102218.50;1770798;80;21729;-54
2021/10/30 13:54:09;;;;;;;30.25;18.75;;;;;;;14.29;51.88;102221.27;1770578;81;21173;-53
2021/10/30 13:57:14;;;;;;;28.98;18.98;;;;;;;14.16;52.01;102210.58;1770399;81;21725;-54
2021/10/30 14:00:20;;;;;;;34.15;21.35;;;;;;;14.03;52.39;102214.73;1769940;80;21205;-53
2021/10/30 14:03:26;;;;;;;37.65;23.62;;;;;;;13.87;52.94;102221.41;1766049;81;21254;-54
2021/10/30 14:06:32;;;;;;;39.42;28.25;;;;;;;13.71;53.49;102222.57;1760587;81;21278;-54
2021/10/30 14:09:38;;;;;;;44.88;28.00;;;;;;;13.52;53.96;102223.52;1739131;82;21188;-53
2021/10/30 14:12:44;;;;;;;50.45;29.23;;;;;;;13.35;54.16;102213.30;1761631;81;21231;-54
2021/10/30 14:15:53;;;;;;;54.18;29.50;;;;;;;13.18;54.70;102209.42;1760595;81;21724;-53
2021/10/30 14:19:01;;;;;;;48.30;28.80;;;;;;;13.00;55.14;102218.55;1761029;81;22016;-54
2021/10/30 14:22:06;;;;;;;54.05;31.85;;;;;;;12.81;55.45;102212.53;1760936;81;21196;-53